sensor_id;sensor_type;location;lat;lon;timestamp;pressure;altitude;pressure_sealevel;temperature;humidity
75991;BME280;64673;52.276;10.560;2023-01-29T00:00:30;102038.88;;;-2.50;88.59
75991;BME280;64673;52.276;10.560;2023-01-29T00:02:56;102038.75;;;-2.48;89.14
75991;BME280;64673;52.276;10.560;2023-01-29T00:05:21;102030.47;;;-2.36;87.09
75991;BME280;64673;52.276;10.560;2023-01-29T00:07:46;102032.06;;;-2.25;86.59
75991;BME280;64673;52.276;10.560;2023-01-29T00:10:12;102021.56;;;-2.35;86.61
75991;BME280;64673;52.276;10.560;2023-01-29T00:12:38;102025.34;;;-2.19;87.80
75991;BME280;64673;52.276;10.560;2023-01-29T00:15:03;102024.00;;;-2.24;87.27
75991;BME280;64673;52.276;10.560;2023-01-29T00:17:29;102023.09;;;-2.14;86.24
75991;BME280;64673;52.276;10.560;2023-01-29T00:19:54;102021.72;;;-2.18;87.29
75991;BME280;64673;52.276;10.560;2023-01-29T00:22:19;102023.09;;;-2.14;86.04
75991;BME280;64673;52.276;10.560;2023-01-29T00:24:44;102022.25;;;-2.15;85.60
75991;BME280;64673;52.276;10.560;2023-01-29T00:27:10;102019.75;;;-2.16;86.26
75991;BME280;64673;52.276;10.560;2023-01-29T00:29:35;102025.72;;;-2.14;86.21
75991;BME280;64673;52.276;10.560;2023-01-29T00:32:00;102014.47;;;-2.16;86.74
75991;BME280;64673;52.276;10.560;2023-01-29T00:34:26;102016.13;;;-2.15;87.29
75991;BME280;64673;52.276;10.560;2023-01-29T00:36:51;102010.91;;;-2.07;85.91
75991;BME280;64673;52.276;10.560;2023-01-29T00:39:16;102007.81;;;-2.21;88.11
75991;BME280;64673;52.276;10.560;2023-01-29T00:41:49;102003.34;;;-2.20;87.21
75991;BME280;64673;52.276;10.560;2023-01-29T00:44:32;101999.66;;;-2.27;86.91
75991;BME280;64673;52.276;10.560;2023-01-29T00:47:16;101996.47;;;-2.31;87.55
75991;BME280;64673;52.276;10.560;2023-01-29T00:49:55;102001.47;;;-2.28;87.36
75991;BME280;64673;52.276;10.560;2023-01-29T00:52:21;101996.81;;;-2.34;87.45
75991;BME280;64673;52.276;10.560;2023-01-29T00:54:55;101994.59;;;-2.21;85.70
75991;BME280;64673;52.276;10.560;2023-01-29T00:57:21;101995.91;;;-2.25;86.09
75991;BME280;64673;52.276;10.560;2023-01-29T00:59:46;101990.38;;;-2.31;87.27
75991;BME280;64673;52.276;10.560;2023-01-29T01:02:12;101988.06;;;-2.34;87.38
75991;BME280;64673;52.276;10.560;2023-01-29T01:04:56;101995.44;;;-2.38;87.87
75991;BME280;64673;52.276;10.560;2023-01-29T01:07:21;101994.59;;;-2.38;87.45
75991;BME280;64673;52.276;10.560;2023-01-29T01:09:47;101990.75;;;-2.44;87.17
75991;BME280;64673;52.276;10.560;2023-01-29T01:12:31;101991.34;;;-2.50;87.89
75991;BME280;64673;52.276;10.560;2023-01-29T01:14:56;101994.81;;;-2.32;87.12
75991;BME280;64673;52.276;10.560;2023-01-29T01:17:22;102000.78;;;-2.30;86.59
75991;BME280;64673;52.276;10.560;2023-01-29T01:19:47;101999.75;;;-2.19;86.71
75991;BME280;64673;52.276;10.560;2023-01-29T01:22:12;101998.41;;;-2.23;86.49
75991;BME280;64673;52.276;10.560;2023-01-29T01:24:38;101997.09;;;-2.19;87.16
75991;BME280;64673;52.276;10.560;2023-01-29T01:27:04;101989.38;;;-2.30;87.23
75991;BME280;64673;52.276;10.560;2023-01-29T01:29:30;101985.22;;;-2.33;87.96
75991;BME280;64673;52.276;10.560;2023-01-29T01:31:55;101969.84;;;-2.19;86.88
75991;BME280;64673;52.276;10.560;2023-01-29T01:34:20;101963.97;;;-2.13;87.38
75991;BME280;64673;52.276;10.560;2023-01-29T01:36:46;101960.69;;;-2.07;86.47
75991;BME280;64673;52.276;10.560;2023-01-29T01:39:12;101951.03;;;-2.16;86.50
75991;BME280;64673;52.276;10.560;2023-01-29T01:41:38;101955.41;;;-2.07;86.75
75991;BME280;64673;52.276;10.560;2023-01-29T01:44:04;101960.00;;;-2.09;86.46
75991;BME280;64673;52.276;10.560;2023-01-29T01:46:32;101957.22;;;-2.08;87.09
75991;BME280;64673;52.276;10.560;2023-01-29T01:49:04;101956.78;;;-2.03;86.54
75991;BME280;64673;52.276;10.560;2023-01-29T01:51:34;101957.06;;;-2.06;86.36
75991;BME280;64673;52.276;10.560;2023-01-29T01:54:07;101952.09;;;-2.09;86.56
75991;BME280;64673;52.276;10.560;2023-01-29T01:56:37;101960.25;;;-2.03;86.38
75991;BME280;64673;52.276;10.560;2023-01-29T01:59:16;101946.19;;;-2.03;86.00
75991;BME280;64673;52.276;10.560;2023-01-29T02:01:46;101941.50;;;-2.09;86.89
75991;BME280;64673;52.276;10.560;2023-01-29T02:04:17;101952.16;;;-2.01;86.62
75991;BME280;64673;52.276;10.560;2023-01-29T02:07:05;101953.22;;;-1.94;85.72
75991;BME280;64673;52.276;10.560;2023-01-29T02:09:53;101956.88;;;-1.87;85.11
75991;BME280;64673;52.276;10.560;2023-01-29T02:12:24;101955.47;;;-1.81;85.49
75991;BME280;64673;52.276;10.560;2023-01-29T02:14:50;101965.19;;;-1.82;84.80
75991;BME280;64673;52.276;10.560;2023-01-29T02:17:17;101966.25;;;-1.75;85.28
75991;BME280;64673;52.276;10.560;2023-01-29T02:22:41;101957.31;;;-1.74;85.41
75991;BME280;64673;52.276;10.560;2023-01-29T02:33:59;101955.75;;;-1.59;84.86
75991;BME280;64673;52.276;10.560;2023-01-29T02:36:49;101973.66;;;-1.53;84.32
75991;BME280;64673;52.276;10.560;2023-01-29T02:45:09;101966.75;;;-1.45;82.88
75991;BME280;64673;52.276;10.560;2023-01-29T02:47:33;101979.16;;;-1.46;83.58
75991;BME280;64673;52.276;10.560;2023-01-29T02:52:38;101980.81;;;-1.45;84.53
75991;BME280;64673;52.276;10.560;2023-01-29T02:55:10;101987.63;;;-1.42;84.53
75991;BME280;64673;52.276;10.560;2023-01-29T02:57:40;101987.47;;;-1.41;83.59
75991;BME280;64673;52.276;10.560;2023-01-29T03:00:29;101982.31;;;-1.42;84.17
75991;BME280;64673;52.276;10.560;2023-01-29T03:05:49;101985.84;;;-1.34;83.71
75991;BME280;64673;52.276;10.560;2023-01-29T03:08:31;101983.88;;;-1.32;83.64
75991;BME280;64673;52.276;10.560;2023-01-29T03:11:08;101983.69;;;-1.38;83.71
75991;BME280;64673;52.276;10.560;2023-01-29T03:13:42;101980.03;;;-1.37;82.76
75991;BME280;64673;52.276;10.560;2023-01-29T03:16:14;101976.06;;;-1.41;84.33
75991;BME280;64673;52.276;10.560;2023-01-29T03:18:43;101973.09;;;-1.38;82.95
75991;BME280;64673;52.276;10.560;2023-01-29T03:21:22;101970.50;;;-1.30;83.79
75991;BME280;64673;52.276;10.560;2023-01-29T03:24:09;101966.34;;;-1.33;83.76
75991;BME280;64673;52.276;10.560;2023-01-29T03:26:57;101966.84;;;-1.29;82.46
75991;BME280;64673;52.276;10.560;2023-01-29T03:29:45;101964.88;;;-1.27;82.43
75991;BME280;64673;52.276;10.560;2023-01-29T03:32:31;101969.50;;;-1.29;83.28
75991;BME280;64673;52.276;10.560;2023-01-29T03:34:59;101962.34;;;-1.37;85.07
75991;BME280;64673;52.276;10.560;2023-01-29T03:37:30;101960.13;;;-1.50;85.25
75991;BME280;64673;52.276;10.560;2023-01-29T03:40:00;101960.44;;;-1.53;86.38
75991;BME280;64673;52.276;10.560;2023-01-29T03:42:33;101963.75;;;-1.51;88.29
75991;BME280;64673;52.276;10.560;2023-01-29T03:48:07;101955.34;;;-1.46;86.61
75991;BME280;64673;52.276;10.560;2023-01-29T03:50:40;101960.75;;;-1.56;87.05
75991;BME280;64673;52.276;10.560;2023-01-29T03:53:28;101945.41;;;-1.52;87.54
75991;BME280;64673;52.276;10.560;2023-01-29T03:56:01;101945.25;;;-1.51;86.27
75991;BME280;64673;52.276;10.560;2023-01-29T04:01:20;101940.63;;;-1.49;86.71
75991;BME280;64673;52.276;10.560;2023-01-29T04:03:51;101934.84;;;-1.44;87.17
75991;BME280;64673;52.276;10.560;2023-01-29T04:06:23;101933.31;;;-1.55;87.36
75991;BME280;64673;52.276;10.560;2023-01-29T04:09:02;101928.72;;;-1.44;85.87
75991;BME280;64673;52.276;10.560;2023-01-29T04:11:28;101922.91;;;-1.48;86.71
75991;BME280;64673;52.276;10.560;2023-01-29T04:13:56;101921.47;;;-1.42;85.07
75991;BME280;64673;52.276;10.560;2023-01-29T04:16:26;101911.03;;;-1.44;86.40
75991;BME280;64673;52.276;10.560;2023-01-29T04:18:52;101909.78;;;-1.58;87.04
75991;BME280;64673;52.276;10.560;2023-01-29T04:21:19;101913.59;;;-1.60;86.02
75991;BME280;64673;52.276;10.560;2023-01-29T04:23:44;101911.28;;;-1.63;86.44
75991;BME280;64673;52.276;10.560;2023-01-29T04:26:33;101899.22;;;-1.58;85.78
75991;BME280;64673;52.276;10.560;2023-01-29T04:29:26;101896.53;;;-1.66;86.16
75991;BME280;64673;52.276;10.560;2023-01-29T04:35:05;101894.88;;;-1.67;85.70
75991;BME280;64673;52.276;10.560;2023-01-29T04:38:14;101890.53;;;-1.76;86.35
75991;BME280;64673;52.276;10.560;2023-01-29T04:41:04;101873.97;;;-1.78;86.83
75991;BME280;64673;52.276;10.560;2023-01-29T04:43:46;101875.63;;;-1.77;86.56
75991;BME280;64673;52.276;10.560;2023-01-29T04:46:26;101869.69;;;-1.79;86.90
75991;BME280;64673;52.276;10.560;2023-01-29T04:52:05;101863.06;;;-1.83;86.47
75991;BME280;64673;52.276;10.560;2023-01-29T05:02:38;101837.88;;;-1.95;86.92
75991;BME280;64673;52.276;10.560;2023-01-29T05:05:04;101844.84;;;-1.86;86.57
75991;BME280;64673;52.276;10.560;2023-01-29T05:07:33;101835.06;;;-1.94;86.87
75991;BME280;64673;52.276;10.560;2023-01-29T05:10:00;101833.59;;;-1.88;87.06
75991;BME280;64673;52.276;10.560;2023-01-29T05:12:27;101832.16;;;-1.82;86.51
75991;BME280;64673;52.276;10.560;2023-01-29T05:14:55;101838.44;;;-1.83;87.23
75991;BME280;64673;52.276;10.560;2023-01-29T05:17:24;101833.81;;;-1.81;86.33
75991;BME280;64673;52.276;10.560;2023-01-29T05:19:50;101835.56;;;-1.90;86.53
75991;BME280;64673;52.276;10.560;2023-01-29T05:22:17;101833.59;;;-1.88;86.47
75991;BME280;64673;52.276;10.560;2023-01-29T05:24:46;101830.81;;;-1.87;86.33
75991;BME280;64673;52.276;10.560;2023-01-29T05:27:18;101838.28;;;-1.82;86.26
75991;BME280;64673;52.276;10.560;2023-01-29T05:30:03;101829.66;;;-1.84;86.71
75991;BME280;64673;52.276;10.560;2023-01-29T05:32:29;101835.25;;;-1.87;87.47
75991;BME280;64673;52.276;10.560;2023-01-29T05:34:54;101829.66;;;-1.84;87.38
75991;BME280;64673;52.276;10.560;2023-01-29T05:37:19;101836.63;;;-1.83;87.39
75991;BME280;64673;52.276;10.560;2023-01-29T05:39:45;101834.97;;;-1.84;86.73
75991;BME280;64673;52.276;10.560;2023-01-29T05:42:10;101845.03;;;-1.79;85.74
75991;BME280;64673;52.276;10.560;2023-01-29T05:44:35;101844.75;;;-1.76;86.13
75991;BME280;64673;52.276;10.560;2023-01-29T05:47:01;101846.56;;;-1.77;86.35
75991;BME280;64673;52.276;10.560;2023-01-29T05:49:28;101842.94;;;-1.76;86.24
75991;BME280;64673;52.276;10.560;2023-01-29T05:51:54;101848.84;;;-1.82;86.12
75991;BME280;64673;52.276;10.560;2023-01-29T05:54:19;101855.16;;;-1.75;85.94
75991;BME280;64673;52.276;10.560;2023-01-29T05:56:45;101845.41;;;-1.74;86.31
75991;BME280;64673;52.276;10.560;2023-01-29T05:59:10;101851.84;;;-1.77;86.50
75991;BME280;64673;52.276;10.560;2023-01-29T06:01:36;101846.06;;;-1.80;86.54
75991;BME280;64673;52.276;10.560;2023-01-29T06:04:01;101847.19;;;-1.83;86.07
75991;BME280;64673;52.276;10.560;2023-01-29T06:06:26;101851.69;;;-1.75;85.83
75991;BME280;64673;52.276;10.560;2023-01-29T06:08:52;101853.19;;;-1.73;85.74
75991;BME280;64673;52.276;10.560;2023-01-29T06:11:17;101868.56;;;-1.68;84.96
75991;BME280;64673;52.276;10.560;2023-01-29T06:13:44;101885.69;;;-1.55;84.81
75991;BME280;64673;52.276;10.560;2023-01-29T06:16:11;101893.81;;;-1.48;84.84
75991;BME280;64673;52.276;10.560;2023-01-29T06:18:37;101889.34;;;-1.48;85.69
75991;BME280;64673;52.276;10.560;2023-01-29T06:21:04;101900.59;;;-1.45;84.51
75991;BME280;64673;52.276;10.560;2023-01-29T06:23:30;101893.81;;;-1.48;85.50
75991;BME280;64673;52.276;10.560;2023-01-29T06:26:00;101892.34;;;-1.42;85.43
75991;BME280;64673;52.276;10.560;2023-01-29T06:28:25;101893.72;;;-1.38;84.32
75991;BME280;64673;52.276;10.560;2023-01-29T06:30:51;101881.78;;;-1.42;84.46
75991;BME280;64673;52.276;10.560;2023-01-29T06:33:16;101877.50;;;-1.35;84.32
75991;BME280;64673;52.276;10.560;2023-01-29T06:35:41;101871.38;;;-1.36;84.02
75991;BME280;64673;52.276;10.560;2023-01-29T06:38:07;101877.50;;;-1.35;84.27
75991;BME280;64673;52.276;10.560;2023-01-29T06:40:32;101859.50;;;-1.32;84.38
75991;BME280;64673;52.276;10.560;2023-01-29T06:42:59;101856.31;;;-1.35;84.34
75991;BME280;64673;52.276;10.560;2023-01-29T06:45:25;101856.00;;;-1.32;83.94
75991;BME280;64673;52.276;10.560;2023-01-29T06:47:50;101852.53;;;-1.33;83.58
75991;BME280;64673;52.276;10.560;2023-01-29T06:50:16;101849.88;;;-1.33;84.77
75991;BME280;64673;52.276;10.560;2023-01-29T06:52:43;101843.78;;;-1.33;83.25
75991;BME280;64673;52.276;10.560;2023-01-29T06:55:08;101868.25;;;-1.31;84.30
75991;BME280;64673;52.276;10.560;2023-01-29T06:57:34;101882.31;;;-1.31;84.10
75991;BME280;64673;52.276;10.560;2023-01-29T06:59:59;101870.41;;;-1.27;83.92
75991;BME280;64673;52.276;10.560;2023-01-29T07:02:24;101871.88;;;-1.32;85.46
75991;BME280;64673;52.276;10.560;2023-01-29T07:04:50;101864.81;;;-1.24;84.69
75991;BME280;64673;52.276;10.560;2023-01-29T07:07:15;101870.78;;;-1.22;84.23
75991;BME280;64673;52.276;10.560;2023-01-29T07:09:41;101869.94;;;-1.22;83.12
75991;BME280;64673;52.276;10.560;2023-01-29T07:12:09;101872.06;;;-1.26;83.38
75991;BME280;64673;52.276;10.560;2023-01-29T07:14:34;101867.31;;;-1.14;83.59
75991;BME280;64673;52.276;10.560;2023-01-29T07:17:00;101875.09;;;-1.21;82.77
75991;BME280;64673;52.276;10.560;2023-01-29T07:19:25;101890.47;;;-1.16;82.50
75991;BME280;64673;52.276;10.560;2023-01-29T07:21:51;101902.22;;;-1.19;82.97
75991;BME280;64673;52.276;10.560;2023-01-29T07:24:16;101913.00;;;-1.12;83.17
75991;BME280;64673;52.276;10.560;2023-01-29T07:26:42;101909.72;;;-1.06;83.78
75991;BME280;64673;52.276;10.560;2023-01-29T07:29:08;101909.34;;;-1.11;83.52
75991;BME280;64673;52.276;10.560;2023-01-29T07:31:33;101901.41;;;-1.11;83.52
75991;BME280;64673;52.276;10.560;2023-01-29T07:33:58;101892.03;;;-0.97;82.51
75991;BME280;64673;52.276;10.560;2023-01-29T07:36:24;101885.41;;;-1.01;82.85
75991;BME280;64673;52.276;10.560;2023-01-29T07:38:49;101889.53;;;-0.99;82.27
75991;BME280;64673;52.276;10.560;2023-01-29T07:41:15;101882.91;;;-1.03;83.72
75991;BME280;64673;52.276;10.560;2023-01-29T07:43:40;101871.69;;;-0.97;82.62
75991;BME280;64673;52.276;10.560;2023-01-29T07:46:06;101869.03;;;-0.89;82.47
75991;BME280;64673;52.276;10.560;2023-01-29T07:48:32;101871.03;;;-0.91;82.06
75991;BME280;64673;52.276;10.560;2023-01-29T07:50:57;101867.22;;;-0.88;82.35
75991;BME280;64673;52.276;10.560;2023-01-29T07:53:23;101854.97;;;-0.89;81.80
75991;BME280;64673;52.276;10.560;2023-01-29T07:55:49;101864.41;;;-0.87;81.96
75991;BME280;64673;52.276;10.560;2023-01-29T07:58:14;101865.41;;;-0.80;83.11
75991;BME280;64673;52.276;10.560;2023-01-29T08:00:39;101857.47;;;-0.80;83.30
75991;BME280;64673;52.276;10.560;2023-01-29T08:03:08;101854.50;;;-0.77;82.98
75991;BME280;64673;52.276;10.560;2023-01-29T08:05:34;101839.28;;;-0.75;82.98
75991;BME280;64673;52.276;10.560;2023-01-29T08:08:00;101831.81;;;-0.79;81.72
75991;BME280;64673;52.276;10.560;2023-01-29T08:10:25;101824.19;;;-0.82;81.85
75991;BME280;64673;52.276;10.560;2023-01-29T08:12:58;101821.22;;;-0.79;82.48
75991;BME280;64673;52.276;10.560;2023-01-29T08:15:24;101820.72;;;-0.83;82.06
75991;BME280;64673;52.276;10.560;2023-01-29T08:17:51;101824.03;;;-0.81;81.43
75991;BME280;64673;52.276;10.560;2023-01-29T08:20:17;101830.00;;;-0.79;82.07
75991;BME280;64673;52.276;10.560;2023-01-29T08:22:42;101839.28;;;-0.75;82.13
75991;BME280;64673;52.276;10.560;2023-01-29T08:25:08;101831.34;;;-0.75;82.36
75991;BME280;64673;52.276;10.560;2023-01-29T08:27:34;101822.06;;;-0.79;82.00
75991;BME280;64673;52.276;10.560;2023-01-29T08:29:59;101820.22;;;-0.70;82.63
75991;BME280;64673;52.276;10.560;2023-01-29T08:32:24;101827.19;;;-0.69;82.69
75991;BME280;64673;52.276;10.560;2023-01-29T08:34:50;101821.38;;;-0.73;82.73
75991;BME280;64673;52.276;10.560;2023-01-29T08:37:15;101823.88;;;-0.63;82.61
75991;BME280;64673;52.276;10.560;2023-01-29T08:39:40;101832.31;;;-0.59;82.52
75991;BME280;64673;52.276;10.560;2023-01-29T08:42:06;101830.34;;;-0.57;82.16
75991;BME280;64673;52.276;10.560;2023-01-29T08:44:31;101834.13;;;-0.60;82.42
75991;BME280;64673;52.276;10.560;2023-01-29T08:46:56;101828.53;;;-0.65;82.67
75991;BME280;64673;52.276;10.560;2023-01-29T08:49:22;101830.97;;;-0.63;82.67
75991;BME280;64673;52.276;10.560;2023-01-29T08:51:47;101830.00;;;-0.70;83.05
75991;BME280;64673;52.276;10.560;2023-01-29T08:54:13;101841.25;;;-0.68;82.56
75991;BME280;64673;52.276;10.560;2023-01-29T08:56:38;101838.44;;;-0.67;81.87
75991;BME280;64673;52.276;10.560;2023-01-29T08:59:03;101830.00;;;-0.70;81.94
75991;BME280;64673;52.276;10.560;2023-01-29T09:01:29;101823.38;;;-0.66;82.29
75991;BME280;64673;52.276;10.560;2023-01-29T09:03:54;101818.75;;;-0.64;83.53
75991;BME280;64673;52.276;10.560;2023-01-29T09:06:19;101816.75;;;-0.62;82.74
75991;BME280;64673;52.276;10.560;2023-01-29T09:08:45;101813.09;;;-0.61;83.14
75991;BME280;64673;52.276;10.560;2023-01-29T09:11:10;101809.78;;;-0.63;83.46
75991;BME280;64673;52.276;10.560;2023-01-29T09:13:36;101803.19;;;-0.67;84.20
75991;BME280;64673;52.276;10.560;2023-01-29T09:16:02;101794.72;;;-0.63;85.08
75991;BME280;64673;52.276;10.560;2023-01-29T09:18:29;101798.88;;;-0.68;85.04
75991;BME280;64673;52.276;10.560;2023-01-29T09:20:55;101783.97;;;-0.69;85.27
75991;BME280;64673;52.276;10.560;2023-01-29T09:23:20;101781.66;;;-0.73;85.21
75991;BME280;64673;52.276;10.560;2023-01-29T09:25:46;101776.03;;;-0.78;85.82
75991;BME280;64673;52.276;10.560;2023-01-29T09:28:11;101787.28;;;-0.76;85.21
75991;BME280;64673;52.276;10.560;2023-01-29T09:30:37;101785.16;;;-0.64;85.31
75991;BME280;64673;52.276;10.560;2023-01-29T09:33:04;101786.97;;;-0.64;85.51
75991;BME280;64673;52.276;10.560;2023-01-29T09:35:29;101787.13;;;-0.58;85.14
75991;BME280;64673;52.276;10.560;2023-01-29T09:37:55;101780.00;;;-0.65;84.90
75991;BME280;64673;52.276;10.560;2023-01-29T09:40:37;101780.47;;;-0.62;85.23
75991;BME280;64673;52.276;10.560;2023-01-29T09:45:55;101771.06;;;-0.64;85.71
75991;BME280;64673;52.276;10.560;2023-01-29T09:48:26;101785.94;;;-0.63;84.58
75991;BME280;64673;52.276;10.560;2023-01-29T09:50:53;101770.72;;;-0.61;85.42
75991;BME280;64673;52.276;10.560;2023-01-29T09:53:27;101777.66;;;-0.52;85.44
75991;BME280;64673;52.276;10.560;2023-01-29T09:58:31;101760.13;;;-0.53;85.34
75991;BME280;64673;52.276;10.560;2023-01-29T10:01:18;101764.41;;;-0.52;84.21
75991;BME280;64673;52.276;10.560;2023-01-29T10:06:40;101772.66;;;-0.31;84.60
75991;BME280;64673;52.276;10.560;2023-01-29T10:17:56;101759.06;;;-0.20;84.59
75991;BME280;64673;52.276;10.560;2023-01-29T10:20:45;101752.59;;;-0.17;83.01
75991;BME280;64673;52.276;10.560;2023-01-29T10:23:21;101757.91;;;-0.17;83.44
75991;BME280;64673;52.276;10.560;2023-01-29T10:25:49;101758.88;;;-0.18;82.95
75991;BME280;64673;52.276;10.560;2023-01-29T10:28:31;101758.69;;;-0.01;82.77
75991;BME280;64673;52.276;10.560;2023-01-29T10:31:06;101753.91;;;-0.13;82.62
75991;BME280;64673;52.276;10.560;2023-01-29T10:33:48;101750.09;;;-0.19;82.73
75991;BME280;64673;52.276;10.560;2023-01-29T10:36:19;101744.81;;;-0.19;82.44
75991;BME280;64673;52.276;10.560;2023-01-29T10:38:47;101746.47;;;-0.18;82.65
75991;BME280;64673;52.276;10.560;2023-01-29T10:53:01;101741.16;;;-0.18;83.08
75991;BME280;64673;52.276;10.560;2023-01-29T10:55:52;101738.34;;;-0.16;82.57
75991;BME280;64673;52.276;10.560;2023-01-29T10:58:33;101736.34;;;-0.14;83.18
75991;BME280;64673;52.276;10.560;2023-01-29T11:01:00;101729.22;;;-0.14;82.89
75991;BME280;64673;52.276;10.560;2023-01-29T11:03:28;101718.28;;;-0.11;83.34
75991;BME280;64673;52.276;10.560;2023-01-29T11:08:30;101699.97;;;0.03;82.54
75991;BME280;64673;52.276;10.560;2023-01-29T11:11:14;101712.94;;;-0.03;82.82
75991;BME280;64673;52.276;10.560;2023-01-29T11:13:54;101703.34;;;-0.04;82.17
75991;BME280;64673;52.276;10.560;2023-01-29T11:16:22;101702.97;;;0.08;82.97
75991;BME280;64673;52.276;10.560;2023-01-29T11:21:21;101682.34;;;0.18;82.90
75991;BME280;64673;52.276;10.560;2023-01-29T11:23:47;101678.69;;;0.19;82.60
75991;BME280;64673;52.276;10.560;2023-01-29T11:26:17;101686.13;;;0.23;81.71
75991;BME280;64673;52.276;10.560;2023-01-29T11:28:48;101678.69;;;0.19;82.23
75991;BME280;64673;52.276;10.560;2023-01-29T11:31:15;101665.44;;;0.19;82.14
75991;BME280;64673;52.276;10.560;2023-01-29T11:33:41;101674.28;;;0.34;82.14
75991;BME280;64673;52.276;10.560;2023-01-29T11:36:23;101667.31;;;0.33;81.80
75991;BME280;64673;52.276;10.560;2023-01-29T11:47:18;101654.53;;;0.36;81.70
75991;BME280;64673;52.276;10.560;2023-01-29T11:49:49;101647.41;;;0.37;81.38
75991;BME280;64673;52.276;10.560;2023-01-29T11:52:17;101638.69;;;0.28;81.15
75991;BME280;64673;52.276;10.560;2023-01-29T11:54:59;101636.13;;;0.35;81.71
75991;BME280;64673;52.276;10.560;2023-01-29T11:59:53;101630.22;;;0.25;81.27
75991;BME280;64673;52.276;10.560;2023-01-29T12:04:52;101630.47;;;0.38;81.51
75991;BME280;64673;52.276;10.560;2023-01-29T12:07:18;101630.38;;;0.31;80.92
75991;BME280;64673;52.276;10.560;2023-01-29T12:09:56;101627.66;;;0.40;80.91
75991;BME280;64673;52.276;10.560;2023-01-29T12:12:29;101623.28;;;0.47;80.25
75991;BME280;64673;52.276;10.560;2023-01-29T12:15:14;101633.38;;;0.51;80.69
75991;BME280;64673;52.276;10.560;2023-01-29T12:17:49;101625.88;;;0.55;80.82
75991;BME280;64673;52.276;10.560;2023-01-29T12:20:22;101616.47;;;0.52;80.96
75991;BME280;64673;52.276;10.560;2023-01-29T12:25:35;101607.25;;;0.63;80.41
75991;BME280;64673;52.276;10.560;2023-01-29T12:28:13;101592.09;;;0.49;81.05
75991;BME280;64673;52.276;10.560;2023-01-29T12:36:43;101597.47;;;0.63;80.42
75991;BME280;64673;52.276;10.560;2023-01-29T12:39:00;101603.13;;;0.60;80.45
75991;BME280;64673;52.276;10.560;2023-01-29T12:41:33;101594.16;;;0.61;80.44
75991;BME280;64673;52.276;10.560;2023-01-29T12:44:11;101591.13;;;0.64;80.36
75991;BME280;64673;52.276;10.560;2023-01-29T12:46:41;101595.06;;;0.68;80.77
75991;BME280;64673;52.276;10.560;2023-01-29T12:49:14;101588.47;;;0.64;80.43
75991;BME280;64673;52.276;10.560;2023-01-29T12:51:53;101588.00;;;0.61;80.37
75991;BME280;64673;52.276;10.560;2023-01-29T12:54:35;101581.97;;;0.67;79.95
75991;BME280;64673;52.276;10.560;2023-01-29T12:57:07;101583.16;;;0.64;80.58
75991;BME280;64673;52.276;10.560;2023-01-29T12:59:41;101577.50;;;0.67;79.82
75991;BME280;64673;52.276;10.560;2023-01-29T13:04:41;101572.66;;;0.71;80.54
75991;BME280;64673;52.276;10.560;2023-01-29T13:07:22;101575.75;;;0.74;80.07
75991;BME280;64673;52.276;10.560;2023-01-29T13:09:54;101576.31;;;0.70;79.77
75991;BME280;64673;52.276;10.560;2023-01-29T13:12:22;101566.53;;;0.70;81.24
75991;BME280;64673;52.276;10.560;2023-01-29T13:14:58;101574.06;;;0.82;79.92
75991;BME280;64673;52.276;10.560;2023-01-29T13:17:38;101564.13;;;0.76;80.45
75991;BME280;64673;52.276;10.560;2023-01-29T13:20:15;101560.47;;;0.77;80.41
75991;BME280;64673;52.276;10.560;2023-01-29T13:22:43;101556.47;;;0.81;80.55
75991;BME280;64673;52.276;10.560;2023-01-29T13:25:15;101551.72;;;0.91;80.33
75991;BME280;64673;52.276;10.560;2023-01-29T13:27:42;101551.25;;;0.87;79.63
75991;BME280;64673;52.276;10.560;2023-01-29T13:30:23;101528.72;;;0.83;80.78
75991;BME280;64673;52.276;10.560;2023-01-29T13:32:51;101522.41;;;0.84;80.62
75991;BME280;64673;52.276;10.560;2023-01-29T13:35:19;101518.19;;;0.90;80.23
75991;BME280;64673;52.276;10.560;2023-01-29T13:37:48;101516.25;;;0.98;79.68
75991;BME280;64673;52.276;10.560;2023-01-29T13:40:24;101513.16;;;0.95;80.24
75991;BME280;64673;52.276;10.560;2023-01-29T13:42:50;101510.13;;;0.98;79.50
75991;BME280;64673;52.276;10.560;2023-01-29T13:45:34;101509.59;;;1.02;79.59
75991;BME280;64673;52.276;10.560;2023-01-29T13:50:49;101495.13;;;1.05;79.34
75991;BME280;64673;52.276;10.560;2023-01-29T13:53:20;101503.72;;;1.07;79.57
75991;BME280;64673;52.276;10.560;2023-01-29T13:55:47;101493.09;;;1.07;79.41
75991;BME280;64673;52.276;10.560;2023-01-29T13:58:15;101490.16;;;1.02;79.20
75991;BME280;64673;52.276;10.560;2023-01-29T14:05:56;101473.78;;;0.98;78.72
75991;BME280;64673;52.276;10.560;2023-01-29T14:13:47;101473.22;;;1.03;78.18
75991;BME280;64673;52.276;10.560;2023-01-29T14:18:45;101458.94;;;1.04;78.30
75991;BME280;64673;52.276;10.560;2023-01-29T14:23:44;101449.75;;;1.06;78.89
75991;BME280;64673;52.276;10.560;2023-01-29T14:28:57;101450.22;;;1.10;79.51
75991;BME280;64673;52.276;10.560;2023-01-29T14:31:35;101444.19;;;1.16;78.98
75991;BME280;64673;52.276;10.560;2023-01-29T14:34:03;101448.13;;;1.05;79.31
75991;BME280;64673;52.276;10.560;2023-01-29T14:36:38;101447.03;;;1.15;78.32
75991;BME280;64673;52.276;10.560;2023-01-29T14:39:05;101455.91;;;1.07;79.50
75991;BME280;64673;52.276;10.560;2023-01-29T14:41:32;101453.97;;;1.16;78.62
75991;BME280;64673;52.276;10.560;2023-01-29T14:47:02;101446.84;;;1.16;78.08
75991;BME280;64673;52.276;10.560;2023-01-29T14:52:17;101440.25;;;1.12;79.04
75991;BME280;64673;52.276;10.560;2023-01-29T14:54:46;101433.47;;;1.09;78.41
75991;BME280;64673;52.276;10.560;2023-01-29T14:57:12;101436.41;;;1.15;79.18
75991;BME280;64673;52.276;10.560;2023-01-29T14:59:53;101427.31;;;1.09;79.01
75991;BME280;64673;52.276;10.560;2023-01-29T15:02:26;101425.59;;;1.16;78.99
75991;BME280;64673;52.276;10.560;2023-01-29T15:04:58;101426.13;;;1.12;79.29